Terminal Aerodrome Forecast
Issued by NWS Denver/Boulder, CO

Home | Current Version | Previous Version | Text Only | Print | Product List | Glossary On
Versions: 1 2 3 4 5 6 7 8 9 10 11 12 13 14 15 16 17 18 19 20 21 22 23 24 25 26 27 28 29 30 31 32 33 34 35 36 37 38 39 40 41 42 43 44 45 46 47 48 49 50
000
FTUS45 KBOU 271130
TAFDEN
TAF
KDEN 271130Z 2712/2818 26005KT P6SM BKN140
     FM271400 VRB05KT P6SM SCT140 SCT200
     FM271900 16009KT P6SM SCT090 SCT140
     FM272100 23011G18KT P6SM VCTS SCT090CB BKN140
     FM280100 22010KT P6SM FEW090 SCT140
     FM280400 25008KT P6SM FEW140
     FM280700 36009KT P6SM FEW140
     FM281100 VRB05KT P6SM FEW140=

USA.gov is the U.S. government's official web portal to all federal, state and local government web resources and services.